sensor_id;sensor_type;location;lat;lon;timestamp;pressure;altitude;pressure_sealevel;temperature;humidity
7170;BME280;3626;42.656;23.312;2023-01-29T00:00:01;94648.91;;;-1.40;100.00
7170;BME280;3626;42.656;23.312;2023-01-29T00:00:08;94653.97;;;-1.40;100.00
7170;BME280;3626;42.656;23.312;2023-01-29T00:00:15;94653.09;;;-1.39;100.00
7170;BME280;3626;42.656;23.312;2023-01-29T00:00:21;94653.97;;;-1.40;100.00
7170;BME280;3626;42.656;23.312;2023-01-29T00:00:27;94654.88;;;-1.41;100.00
7170;BME280;3626;42.656;23.312;2023-01-29T00:00:33;94637.16;;;-1.41;100.00
7170;BME280;3626;42.656;23.312;2023-01-29T00:00:39;94649.81;;;-1.41;100.00
7170;BME280;3626;42.656;23.312;2023-01-29T00:00:45;94654.06;;;-1.42;100.00
7170;BME280;3626;42.656;23.312;2023-01-29T00:00:51;94653.16;;;-1.41;100.00
7170;BME280;3626;42.656;23.312;2023-01-29T00:01:02;94652.47;;;-1.43;100.00
7170;BME280;3626;42.656;23.312;2023-01-29T00:01:10;94647.28;;;-1.41;100.00
7170;BME280;3626;42.656;23.312;2023-01-29T00:01:16;94646.47;;;-1.42;100.00
7170;BME280;3626;42.656;23.312;2023-01-29T00:01:22;94638.09;;;-1.42;100.00
7170;BME280;3626;42.656;23.312;2023-01-29T00:01:28;94647.28;;;-1.41;100.00
7170;BME280;3626;42.656;23.312;2023-01-29T00:01:34;94647.28;;;-1.41;100.00
7170;BME280;3626;42.656;23.312;2023-01-29T00:01:40;94644.75;;;-1.41;100.00
7170;BME280;3626;42.656;23.312;2023-01-29T00:01:46;94647.28;;;-1.41;100.00
7170;BME280;3626;42.656;23.312;2023-01-29T00:01:51;94651.44;;;-1.40;100.00
7170;BME280;3626;42.656;23.312;2023-01-29T00:01:57;94637.91;;;-1.39;100.00
7170;BME280;3626;42.656;23.312;2023-01-29T00:02:04;94651.38;;;-1.39;100.00
7170;BME280;3626;42.656;23.312;2023-01-29T00:02:12;94652.19;;;-1.38;100.00
7170;BME280;3626;42.656;23.312;2023-01-29T00:02:17;94646.31;;;-1.39;100.00
7170;BME280;3626;42.656;23.312;2023-01-29T00:02:23;94643.78;;;-1.39;100.00
7170;BME280;3626;42.656;23.312;2023-01-29T00:02:29;94645.41;;;-1.38;100.00
7170;BME280;3626;42.656;23.312;2023-01-29T00:02:35;94653.00;;;-1.38;100.00
7170;BME280;3626;42.656;23.312;2023-01-29T00:02:41;94644.59;;;-1.38;100.00
7170;BME280;3626;42.656;23.312;2023-01-29T00:02:47;94650.44;;;-1.38;100.00
7170;BME280;3626;42.656;23.312;2023-01-29T00:02:56;94642.06;;;-1.38;100.00
7170;BME280;3626;42.656;23.312;2023-01-29T00:03:02;94647.94;;;-1.38;100.00
7170;BME280;3626;42.656;23.312;2023-01-29T00:03:08;94644.47;;;-1.37;100.00
7170;BME280;3626;42.656;23.312;2023-01-29T00:03:14;94638.59;;;-1.37;100.00
7170;BME280;3626;42.656;23.312;2023-01-29T00:03:20;94646.13;;;-1.36;100.00
7170;BME280;3626;42.656;23.312;2023-01-29T00:03:26;94647.81;;;-1.36;100.00
7170;BME280;3626;42.656;23.312;2023-01-29T00:03:34;94644.41;;;-1.35;100.00
7170;BME280;3626;42.656;23.312;2023-01-29T00:03:40;94652.00;;;-1.35;100.00
7170;BME280;3626;42.656;23.312;2023-01-29T00:03:45;94646.13;;;-1.36;100.00
7170;BME280;3626;42.656;23.312;2023-01-29T00:03:55;94643.59;;;-1.36;100.00
7170;BME280;3626;42.656;23.312;2023-01-29T00:04:01;94646.94;;;-1.35;100.00
7170;BME280;3626;42.656;23.312;2023-01-29T00:04:07;94654.53;;;-1.35;100.00
7170;BME280;3626;42.656;23.312;2023-01-29T00:04:15;94653.78;;;-1.37;100.00
7170;BME280;3626;42.656;23.312;2023-01-29T00:04:21;94640.22;;;-1.36;100.00
7170;BME280;3626;42.656;23.312;2023-01-29T00:04:27;94646.03;;;-1.34;100.00
7170;BME280;3626;42.656;23.312;2023-01-29T00:04:32;94644.31;;;-1.34;100.00
7170;BME280;3626;42.656;23.312;2023-01-29T00:04:38;94649.38;;;-1.34;100.00
7170;BME280;3626;42.656;23.312;2023-01-29T00:04:44;94640.16;;;-1.35;100.00
7170;BME280;3626;42.656;23.312;2023-01-29T00:04:50;94638.44;;;-1.34;100.00
7170;BME280;3626;42.656;23.312;2023-01-29T00:04:56;94640.84;;;-1.33;100.00
7170;BME280;3626;42.656;23.312;2023-01-29T00:05:01;94649.38;;;-1.34;100.00
7170;BME280;3626;42.656;23.312;2023-01-29T00:05:08;94640.97;;;-1.34;100.00
7170;BME280;3626;42.656;23.312;2023-01-29T00:05:14;94649.38;;;-1.34;100.00
7170;BME280;3626;42.656;23.312;2023-01-29T00:05:20;94652.69;;;-1.33;100.00
7170;BME280;3626;42.656;23.312;2023-01-29T00:05:26;94647.63;;;-1.33;100.00
7170;BME280;3626;42.656;23.312;2023-01-29T00:05:33;94645.91;;;-1.33;100.00
7170;BME280;3626;42.656;23.312;2023-01-29T00:05:40;94644.31;;;-1.34;100.00
7170;BME280;3626;42.656;23.312;2023-01-29T00:05:46;94655.22;;;-1.33;100.00
7170;BME280;3626;42.656;23.312;2023-01-29T00:05:53;94655.22;;;-1.33;100.00
7170;BME280;3626;42.656;23.312;2023-01-29T00:05:59;94648.56;;;-1.34;100.00
7170;BME280;3626;42.656;23.312;2023-01-29T00:06:06;94645.22;;;-1.35;100.00
7170;BME280;3626;42.656;23.312;2023-01-29T00:06:12;94631.75;;;-1.35;100.00
7170;BME280;3626;42.656;23.312;2023-01-29T00:06:18;94657.88;;;-1.35;100.00
7170;BME280;3626;42.656;23.312;2023-01-29T00:06:24;94652.88;;;-1.36;100.00
7170;BME280;3626;42.656;23.312;2023-01-29T00:06:30;94642.75;;;-1.36;100.00
7170;BME280;3626;42.656;23.312;2023-01-29T00:06:36;94652.88;;;-1.36;100.00
7170;BME280;3626;42.656;23.312;2023-01-29T00:06:42;94645.28;;;-1.36;100.00
7170;BME280;3626;42.656;23.312;2023-01-29T00:06:48;94657.94;;;-1.36;100.00
7170;BME280;3626;42.656;23.312;2023-01-29T00:06:56;94653.72;;;-1.36;100.00
7170;BME280;3626;42.656;23.312;2023-01-29T00:07:03;94642.75;;;-1.36;100.00
7170;BME280;3626;42.656;23.312;2023-01-29T00:07:09;94649.53;;;-1.37;100.00
7170;BME280;3626;42.656;23.312;2023-01-29T00:07:17;94646.31;;;-1.39;100.00
7170;BME280;3626;42.656;23.312;2023-01-29T00:07:22;94639.69;;;-1.41;100.00
7170;BME280;3626;42.656;23.312;2023-01-29T00:07:28;94648.22;;;-1.42;100.00
7170;BME280;3626;42.656;23.312;2023-01-29T00:07:34;94645.78;;;-1.44;100.00
7170;BME280;3626;42.656;23.312;2023-01-29T00:07:40;94650.09;;;-1.46;100.00
7170;BME280;3626;42.656;23.312;2023-01-29T00:07:46;94649.28;;;-1.46;100.00
7170;BME280;3626;42.656;23.312;2023-01-29T00:07:51;94653.44;;;-1.45;100.00
7170;BME280;3626;42.656;23.312;2023-01-29T00:07:57;94645.03;;;-1.46;100.00
7170;BME280;3626;42.656;23.312;2023-01-29T00:08:03;94648.38;;;-1.45;100.00
7170;BME280;3626;42.656;23.312;2023-01-29T00:08:09;94641.59;;;-1.45;100.00
7170;BME280;3626;42.656;23.312;2023-01-29T00:08:18;94644.13;;;-1.45;100.00
7170;BME280;3626;42.656;23.312;2023-01-29T00:08:23;94653.44;;;-1.45;100.00
7170;BME280;3626;42.656;23.312;2023-01-29T00:08:29;94648.38;;;-1.45;100.00
7170;BME280;3626;42.656;23.312;2023-01-29T00:08:36;94639.19;;;-1.46;100.00
7170;BME280;3626;42.656;23.312;2023-01-29T00:08:42;94645.03;;;-1.46;100.00
7170;BME280;3626;42.656;23.312;2023-01-29T00:08:48;94637.56;;;-1.47;100.00
7170;BME280;3626;42.656;23.312;2023-01-29T00:08:54;94646.06;;;-1.48;100.00
7170;BME280;3626;42.656;23.312;2023-01-29T00:09:00;94651.81;;;-1.46;100.00
7170;BME280;3626;42.656;23.312;2023-01-29T00:09:06;94650.09;;;-1.46;100.00
7170;BME280;3626;42.656;23.312;2023-01-29T00:09:12;94649.19;;;-1.45;100.00
7170;BME280;3626;42.656;23.312;2023-01-29T00:09:18;94655.97;;;-1.45;100.00
7170;BME280;3626;42.656;23.312;2023-01-29T00:09:24;94653.44;;;-1.45;100.00
7170;BME280;3626;42.656;23.312;2023-01-29T00:09:30;94656.78;;;-1.45;100.00
7170;BME280;3626;42.656;23.312;2023-01-29T00:09:36;94645.84;;;-1.45;100.00
7170;BME280;3626;42.656;23.312;2023-01-29T00:09:42;94655.91;;;-1.44;100.00
7170;BME280;3626;42.656;23.312;2023-01-29T00:09:48;94647.50;;;-1.44;100.00
7170;BME280;3626;42.656;23.312;2023-01-29T00:09:53;94649.13;;;-1.43;100.00
7170;BME280;3626;42.656;23.312;2023-01-29T00:09:59;94650.84;;;-1.44;100.00
7170;BME280;3626;42.656;23.312;2023-01-29T00:10:06;94654.19;;;-1.43;100.00
7170;BME280;3626;42.656;23.312;2023-01-29T00:10:14;94647.41;;;-1.43;100.00
7170;BME280;3626;42.656;23.312;2023-01-29T00:10:20;94655.81;;;-1.42;100.00
7170;BME280;3626;42.656;23.312;2023-01-29T00:10:26;94652.34;;;-1.41;100.00
7170;BME280;3626;42.656;23.312;2023-01-29T00:10:32;94654.06;;;-1.42;100.00
7170;BME280;3626;42.656;23.312;2023-01-29T00:10:37;94655.00;;;-1.43;100.00
7170;BME280;3626;42.656;23.312;2023-01-29T00:10:44;94650.75;;;-1.42;100.00
7170;BME280;3626;42.656;23.312;2023-01-29T00:10:52;94652.47;;;-1.43;100.00
7170;BME280;3626;42.656;23.312;2023-01-29T00:11:06;94655.09;;;-1.44;100.00
7170;BME280;3626;42.656;23.312;2023-01-29T00:11:14;94650.75;;;-1.42;100.00
7170;BME280;3626;42.656;23.312;2023-01-29T00:11:21;94650.75;;;-1.42;100.00
7170;BME280;3626;42.656;23.312;2023-01-29T00:11:28;94646.47;;;-1.42;100.00
7170;BME280;3626;42.656;23.312;2023-01-29T00:11:38;94647.28;;;-1.41;100.00
7170;BME280;3626;42.656;23.312;2023-01-29T00:11:44;94648.91;;;-1.40;100.00
7170;BME280;3626;42.656;23.312;2023-01-29T00:11:51;94647.28;;;-1.41;100.00
7170;BME280;3626;42.656;23.312;2023-01-29T00:11:57;94653.97;;;-1.40;100.00
7170;BME280;3626;42.656;23.312;2023-01-29T00:12:03;94656.50;;;-1.40;100.00
7170;BME280;3626;42.656;23.312;2023-01-29T00:12:08;94645.56;;;-1.41;100.00
7170;BME280;3626;42.656;23.312;2023-01-29T00:12:14;94655.69;;;-1.41;100.00
7170;BME280;3626;42.656;23.312;2023-01-29T00:12:20;94654.88;;;-1.41;100.00
7170;BME280;3626;42.656;23.312;2023-01-29T00:12:26;94653.16;;;-1.41;100.00
7170;BME280;3626;42.656;23.312;2023-01-29T00:12:32;94654.88;;;-1.41;100.00
7170;BME280;3626;42.656;23.312;2023-01-29T00:12:38;94649.00;;;-1.42;100.00
7170;BME280;3626;42.656;23.312;2023-01-29T00:12:45;94652.34;;;-1.41;100.00
7170;BME280;3626;42.656;23.312;2023-01-29T00:12:51;94645.69;;;-1.42;100.00
7170;BME280;3626;42.656;23.312;2023-01-29T00:12:57;94643.16;;;-1.42;100.00
7170;BME280;3626;42.656;23.312;2023-01-29T00:13:04;94656.50;;;-1.40;100.00
7170;BME280;3626;42.656;23.312;2023-01-29T00:13:10;94657.41;;;-1.41;100.00
7170;BME280;3626;42.656;23.312;2023-01-29T00:13:17;94649.94;;;-1.43;100.00
7170;BME280;3626;42.656;23.312;2023-01-29T00:13:22;94659.25;;;-1.43;100.00
7170;BME280;3626;42.656;23.312;2023-01-29T00:13:28;94654.19;;;-1.43;100.00
7170;BME280;3626;42.656;23.312;2023-01-29T00:13:35;94656.72;;;-1.43;100.00
7170;BME280;3626;42.656;23.312;2023-01-29T00:13:42;94657.53;;;-1.43;100.00
7170;BME280;3626;42.656;23.312;2023-01-29T00:13:48;94650.75;;;-1.42;100.00
7170;BME280;3626;42.656;23.312;2023-01-29T00:13:55;94664.19;;;-1.42;100.00
7170;BME280;3626;42.656;23.312;2023-01-29T00:14:01;94661.66;;;-1.42;100.00
7170;BME280;3626;42.656;23.312;2023-01-29T00:14:07;94661.66;;;-1.42;100.00
7170;BME280;3626;42.656;23.312;2023-01-29T00:14:13;94658.34;;;-1.42;100.00
7170;BME280;3626;42.656;23.312;2023-01-29T00:14:19;94648.22;;;-1.42;100.00
7170;BME280;3626;42.656;23.312;2023-01-29T00:14:26;94656.59;;;-1.42;100.00
7170;BME280;3626;42.656;23.312;2023-01-29T00:14:31;94657.41;;;-1.41;100.00
7170;BME280;3626;42.656;23.312;2023-01-29T00:14:37;94652.34;;;-1.41;100.00
7170;BME280;3626;42.656;23.312;2023-01-29T00:14:43;94650.63;;;-1.41;100.00
7170;BME280;3626;42.656;23.312;2023-01-29T00:14:49;94658.22;;;-1.41;100.00
7170;BME280;3626;42.656;23.312;2023-01-29T00:14:54;94653.97;;;-1.40;100.00
7170;BME280;3626;42.656;23.312;2023-01-29T00:15:04;94653.16;;;-1.41;100.00
7170;BME280;3626;42.656;23.312;2023-01-29T00:15:09;94659.94;;;-1.41;100.00
7170;BME280;3626;42.656;23.312;2023-01-29T00:15:16;94653.28;;;-1.42;100.00
7170;BME280;3626;42.656;23.312;2023-01-29T00:15:22;94657.53;;;-1.43;100.00
7170;BME280;3626;42.656;23.312;2023-01-29T00:15:27;94652.47;;;-1.43;100.00
7170;BME280;3626;42.656;23.312;2023-01-29T00:15:33;94653.28;;;-1.42;100.00
7170;BME280;3626;42.656;23.312;2023-01-29T00:15:39;94651.53;;;-1.42;100.00
7170;BME280;3626;42.656;23.312;2023-01-29T00:15:52;94654.88;;;-1.41;100.00
7170;BME280;3626;42.656;23.312;2023-01-29T00:15:59;94654.19;;;-1.43;100.00
7170;BME280;3626;42.656;23.312;2023-01-29T00:16:05;94655.91;;;-1.44;100.00
7170;BME280;3626;42.656;23.312;2023-01-29T00:16:12;94661.78;;;-1.43;100.00
7170;BME280;3626;42.656;23.312;2023-01-29T00:16:18;94656.72;;;-1.43;100.00
7170;BME280;3626;42.656;23.312;2023-01-29T00:16:24;94661.78;;;-1.43;100.00
7170;BME280;3626;42.656;23.312;2023-01-29T00:16:30;94656.78;;;-1.45;100.00
7170;BME280;3626;42.656;23.312;2023-01-29T00:16:35;94659.25;;;-1.43;100.00
7170;BME280;3626;42.656;23.312;2023-01-29T00:16:41;94661.03;;;-1.45;100.00
7170;BME280;3626;42.656;23.312;2023-01-29T00:16:47;94655.97;;;-1.45;100.00
7170;BME280;3626;42.656;23.312;2023-01-29T00:16:53;94651.03;;;-1.47;100.00
7170;BME280;3626;42.656;23.312;2023-01-29T00:16:59;94659.53;;;-1.48;100.00
7170;BME280;3626;42.656;23.312;2023-01-29T00:17:05;94655.28;;;-1.47;100.00
7170;BME280;3626;42.656;23.312;2023-01-29T00:17:12;94660.34;;;-1.47;100.00
7170;BME280;3626;42.656;23.312;2023-01-29T00:17:17;94661.94;;;-1.46;100.00
7170;BME280;3626;42.656;23.312;2023-01-29T00:17:23;94654.38;;;-1.46;100.00
7170;BME280;3626;42.656;23.312;2023-01-29T00:17:29;94657.69;;;-1.46;100.00
7170;BME280;3626;42.656;23.312;2023-01-29T00:17:35;94653.44;;;-1.45;100.00
7170;BME280;3626;42.656;23.312;2023-01-29T00:17:41;94660.97;;;-1.44;100.00
7170;BME280;3626;42.656;23.312;2023-01-29T00:17:47;94663.50;;;-1.44;100.00
7170;BME280;3626;42.656;23.312;2023-01-29T00:17:54;94664.38;;;-1.45;100.00
7170;BME280;3626;42.656;23.312;2023-01-29T00:17:59;94661.78;;;-1.43;100.00
7170;BME280;3626;42.656;23.312;2023-01-29T00:18:05;94659.25;;;-1.43;100.00
7170;BME280;3626;42.656;23.312;2023-01-29T00:18:11;94658.44;;;-1.44;100.00
7170;BME280;3626;42.656;23.312;2023-01-29T00:18:17;94655.81;;;-1.42;100.00
7170;BME280;3626;42.656;23.312;2023-01-29T00:18:23;94654.19;;;-1.43;100.00
7170;BME280;3626;42.656;23.312;2023-01-29T00:18:29;94657.41;;;-1.41;100.00
7170;BME280;3626;42.656;23.312;2023-01-29T00:18:37;94649.81;;;-1.41;100.00
7170;BME280;3626;42.656;23.312;2023-01-29T00:18:45;94661.78;;;-1.43;100.00
7170;BME280;3626;42.656;23.312;2023-01-29T00:18:50;94654.19;;;-1.43;100.00
7170;BME280;3626;42.656;23.312;2023-01-29T00:18:59;94650.84;;;-1.44;100.00
7170;BME280;3626;42.656;23.312;2023-01-29T00:19:04;94656.72;;;-1.43;100.00
7170;BME280;3626;42.656;23.312;2023-01-29T00:19:12;94655.81;;;-1.42;100.00
7170;BME280;3626;42.656;23.312;2023-01-29T00:19:18;94649.81;;;-1.41;100.00
7170;BME280;3626;42.656;23.312;2023-01-29T00:19:24;94652.34;;;-1.41;100.00
7170;BME280;3626;42.656;23.312;2023-01-29T00:19:29;94647.28;;;-1.41;100.00
7170;BME280;3626;42.656;23.312;2023-01-29T00:19:35;94655.81;;;-1.42;100.00
7170;BME280;3626;42.656;23.312;2023-01-29T00:19:41;94659.94;;;-1.41;100.00
7170;BME280;3626;42.656;23.312;2023-01-29T00:19:47;94659.13;;;-1.42;100.00
7170;BME280;3626;42.656;23.312;2023-01-29T00:19:53;94657.53;;;-1.43;100.00
7170;BME280;3626;42.656;23.312;2023-01-29T00:19:59;94649.13;;;-1.43;100.00
7170;BME280;3626;42.656;23.312;2023-01-29T00:20:06;94651.66;;;-1.43;100.00
7170;BME280;3626;42.656;23.312;2023-01-29T00:20:12;94654.19;;;-1.43;100.00
7170;BME280;3626;42.656;23.312;2023-01-29T00:20:18;94655.00;;;-1.43;100.00
7170;BME280;3626;42.656;23.312;2023-01-29T00:20:23;94655.00;;;-1.43;100.00
7170;BME280;3626;42.656;23.312;2023-01-29T00:20:29;94654.06;;;-1.42;100.00
7170;BME280;3626;42.656;23.312;2023-01-29T00:20:35;94662.47;;;-1.41;100.00
7170;BME280;3626;42.656;23.312;2023-01-29T00:20:42;94657.53;;;-1.43;100.00
7170;BME280;3626;42.656;23.312;2023-01-29T00:20:47;94665.00;;;-1.41;100.00
7170;BME280;3626;42.656;23.312;2023-01-29T00:20:53;94655.81;;;-1.42;100.00
7170;BME280;3626;42.656;23.312;2023-01-29T00:20:59;94662.47;;;-1.41;100.00
7170;BME280;3626;42.656;23.312;2023-01-29T00:21:08;94662.47;;;-1.41;100.00
7170;BME280;3626;42.656;23.312;2023-01-29T00:21:15;94659.03;;;-1.40;100.00
7170;BME280;3626;42.656;23.312;2023-01-29T00:21:24;94660.69;;;-1.39;100.00
7170;BME280;3626;42.656;23.312;2023-01-29T00:21:30;94664.84;;;-1.38;100.00
7170;BME280;3626;42.656;23.312;2023-01-29T00:21:36;94662.31;;;-1.38;100.00
7170;BME280;3626;42.656;23.312;2023-01-29T00:21:42;94663.13;;;-1.38;100.00
7170;BME280;3626;42.656;23.312;2023-01-29T00:21:48;94655.53;;;-1.38;100.00
7170;BME280;3626;42.656;23.312;2023-01-29T00:21:53;94659.78;;;-1.38;100.00
7170;BME280;3626;42.656;23.312;2023-01-29T00:21:59;94661.50;;;-1.39;100.00
7170;BME280;3626;42.656;23.312;2023-01-29T00:22:05;94656.44;;;-1.39;100.00
7170;BME280;3626;42.656;23.312;2023-01-29T00:22:11;94659.88;;;-1.40;100.00
7170;BME280;3626;42.656;23.312;2023-01-29T00:22:16;94663.28;;;-1.41;100.00
7170;BME280;3626;42.656;23.312;2023-01-29T00:22:22;94669.25;;;-1.42;100.00
7170;BME280;3626;42.656;23.312;2023-01-29T00:22:29;94662.47;;;-1.41;100.00
7170;BME280;3626;42.656;23.312;2023-01-29T00:22:37;94657.41;;;-1.41;100.00
7170;BME280;3626;42.656;23.312;2023-01-29T00:22:43;94659.03;;;-1.40;100.00
7170;BME280;3626;42.656;23.312;2023-01-29T00:22:49;94659.94;;;-1.41;100.00
7170;BME280;3626;42.656;23.312;2023-01-29T00:22:55;94654.88;;;-1.41;100.00
7170;BME280;3626;42.656;23.312;2023-01-29T00:23:01;94658.22;;;-1.41;100.00
7170;BME280;3626;42.656;23.312;2023-01-29T00:23:07;94658.16;;;-1.39;100.00
7170;BME280;3626;42.656;23.312;2023-01-29T00:23:13;94660.69;;;-1.39;100.00
7170;BME280;3626;42.656;23.312;2023-01-29T00:23:19;94661.66;;;-1.42;100.00
7170;BME280;3626;42.656;23.312;2023-01-29T00:23:25;94655.00;;;-1.43;100.00
7170;BME280;3626;42.656;23.312;2023-01-29T00:23:31;94652.47;;;-1.43;100.00
7170;BME280;3626;42.656;23.312;2023-01-29T00:23:37;94654.19;;;-1.43;100.00
7170;BME280;3626;42.656;23.312;2023-01-29T00:23:43;94658.34;;;-1.42;100.00
7170;BME280;3626;42.656;23.312;2023-01-29T00:23:49;94655.81;;;-1.42;100.00
7170;BME280;3626;42.656;23.312;2023-01-29T00:23:55;94651.53;;;-1.42;100.00
7170;BME280;3626;42.656;23.312;2023-01-29T00:24:01;94659.94;;;-1.41;100.00
7170;BME280;3626;42.656;23.312;2023-01-29T00:24:07;94664.09;;;-1.40;100.00
7170;BME280;3626;42.656;23.312;2023-01-29T00:24:13;94658.97;;;-1.39;100.00
7170;BME280;3626;42.656;23.312;2023-01-29T00:24:18;94659.03;;;-1.40;100.00
7170;BME280;3626;42.656;23.312;2023-01-29T00:24:24;94659.03;;;-1.40;100.00
7170;BME280;3626;42.656;23.312;2023-01-29T00:24:33;94665.75;;;-1.39;100.00
7170;BME280;3626;42.656;23.312;2023-01-29T00:24:39;94676.69;;;-1.39;100.00
7170;BME280;3626;42.656;23.312;2023-01-29T00:24:44;94657.34;;;-1.40;100.00
7170;BME280;3626;42.656;23.312;2023-01-29T00:24:50;94655.63;;;-1.39;100.00
7170;BME280;3626;42.656;23.312;2023-01-29T00:24:56;94661.50;;;-1.39;100.00
7170;BME280;3626;42.656;23.312;2023-01-29T00:25:02;94677.59;;;-1.40;100.00
7170;BME280;3626;42.656;23.312;2023-01-29T00:25:08;94661.56;;;-1.40;100.00
7170;BME280;3626;42.656;23.312;2023-01-29T00:25:14;94661.56;;;-1.40;100.00
7170;BME280;3626;42.656;23.312;2023-01-29T00:25:20;94665.75;;;-1.39;100.00
7170;BME280;3626;42.656;23.312;2023-01-29T00:25:26;94663.22;;;-1.39;100.00
7170;BME280;3626;42.656;23.312;2023-01-29T00:25:34;94667.47;;;-1.40;100.00
7170;BME280;3626;42.656;23.312;2023-01-29T00:25:39;94661.56;;;-1.40;100.00
7170;BME280;3626;42.656;23.312;2023-01-29T00:25:45;94665.81;;;-1.41;100.00
7170;BME280;3626;42.656;23.312;2023-01-29T00:25:51;94670.88;;;-1.41;100.00
7170;BME280;3626;42.656;23.312;2023-01-29T00:25:58;94666.63;;;-1.40;100.00
7170;BME280;3626;42.656;23.312;2023-01-29T00:26:07;94666.63;;;-1.40;100.00
7170;BME280;3626;42.656;23.312;2023-01-29T00:26:15;94656.59;;;-1.42;100.00
7170;BME280;3626;42.656;23.312;2023-01-29T00:26:21;94664.31;;;-1.43;100.00
7170;BME280;3626;42.656;23.312;2023-01-29T00:26:27;94657.53;;;-1.43;100.00
7170;BME280;3626;42.656;23.312;2023-01-29T00:26:33;94652.47;;;-1.43;100.00
7170;BME280;3626;42.656;23.312;2023-01-29T00:26:39;94662.47;;;-1.41;100.00
7170;BME280;3626;42.656;23.312;2023-01-29T00:26:44;94658.22;;;-1.41;100.00
7170;BME280;3626;42.656;23.312;2023-01-29T00:26:50;94669.16;;;-1.40;100.00
7170;BME280;3626;42.656;23.312;2023-01-29T00:26:56;94664.09;;;-1.40;100.00
7170;BME280;3626;42.656;23.312;2023-01-29T00:27:02;94665.00;;;-1.41;100.00
7170;BME280;3626;42.656;23.312;2023-01-29T00:27:08;94660.75;;;-1.41;100.00
7170;BME280;3626;42.656;23.312;2023-01-29T00:27:14;94667.53;;;-1.41;100.00
7170;BME280;3626;42.656;23.312;2023-01-29T00:27:19;94661.56;;;-1.40;100.00
7170;BME280;3626;42.656;23.312;2023-01-29T00:27:25;94659.94;;;-1.41;100.00
7170;BME280;3626;42.656;23.312;2023-01-29T00:27:31;94659.13;;;-1.42;100.00
7170;BME280;3626;42.656;23.312;2023-01-29T00:27:37;94670.88;;;-1.41;100.00
7170;BME280;3626;42.656;23.312;2023-01-29T00:27:43;94660.75;;;-1.41;100.00
7170;BME280;3626;42.656;23.312;2023-01-29T00:27:49;94661.56;;;-1.40;100.00
7170;BME280;3626;42.656;23.312;2023-01-29T00:27:55;94660.69;;;-1.39;100.00
7170;BME280;3626;42.656;23.312;2023-01-29T00:28:01;94661.50;;;-1.39;100.00
7170;BME280;3626;42.656;23.312;2023-01-29T00:28:08;94658.97;;;-1.39;100.00
7170;BME280;3626;42.656;23.312;2023-01-29T00:28:14;94661.50;;;-1.39;100.00
7170;BME280;3626;42.656;23.312;2023-01-29T00:28:19;94667.38;;;-1.38;100.00
7170;BME280;3626;42.656;23.312;2023-01-29T00:28:25;94661.50;;;-1.39;100.00
7170;BME280;3626;42.656;23.312;2023-01-29T00:28:31;94669.09;;;-1.39;100.00
7170;BME280;3626;42.656;23.312;2023-01-29T00:28:37;94665.75;;;-1.39;100.00
7170;BME280;3626;42.656;23.312;2023-01-29T00:28:43;94663.22;;;-1.39;100.00
7170;BME280;3626;42.656;23.312;2023-01-29T00:28:49;94664.09;;;-1.40;100.00
7170;BME280;3626;42.656;23.312;2023-01-29T00:28:55;94664.94;;;-1.40;100.00
7170;BME280;3626;42.656;23.312;2023-01-29T00:29:01;94669.91;;;-1.38;100.00
7170;BME280;3626;42.656;23.312;2023-01-29T00:29:08;94657.25;;;-1.38;100.00
7170;BME280;3626;42.656;23.312;2023-01-29T00:29:14;94674.16;;;-1.39;100.00
7170;BME280;3626;42.656;23.312;2023-01-29T00:29:22;94670.72;;;-1.38;100.00
7170;BME280;3626;42.656;23.312;2023-01-29T00:29:27;94662.31;;;-1.38;100.00
7170;BME280;3626;42.656;23.312;2023-01-29T00:29:33;94667.38;;;-1.38;100.00
7170;BME280;3626;42.656;23.312;2023-01-29T00:29:39;94676.69;;;-1.39;100.00
7170;BME280;3626;42.656;23.312;2023-01-29T00:29:46;94656.50;;;-1.40;100.00
7170;BME280;3626;42.656;23.312;2023-01-29T00:30:12;94658.97;;;-1.39;100.00
7170;BME280;3626;42.656;23.312;2023-01-29T00:30:18;94662.31;;;-1.38;100.00
7170;BME280;3626;42.656;23.312;2023-01-29T00:30:24;94657.25;;;-1.38;100.00
7170;BME280;3626;42.656;23.312;2023-01-29T00:30:31;94663.13;;;-1.38;100.00
7170;BME280;3626;42.656;23.312;2023-01-29T00:30:37;94658.06;;;-1.38;100.00
7170;BME280;3626;42.656;23.312;2023-01-29T00:30:43;94666.44;;;-1.37;100.00
7170;BME280;3626;42.656;23.312;2023-01-29T00:30:48;94661.50;;;-1.39;100.00
7170;BME280;3626;42.656;23.312;2023-01-29T00:30:54;94667.38;;;-1.38;100.00
7170;BME280;3626;42.656;23.312;2023-01-29T00:31:06;94668.97;;;-1.37;100.00
7170;BME280;3626;42.656;23.312;2023-01-29T00:31:14;94663.91;;;-1.37;100.00
7170;BME280;3626;42.656;23.312;2023-01-29T00:31:21;94663.13;;;-1.38;100.00
7170;BME280;3626;42.656;23.312;2023-01-29T00:31:27;94666.44;;;-1.37;100.00
7170;BME280;3626;42.656;23.312;2023-01-29T00:31:33;94666.44;;;-1.37;100.00
7170;BME280;3626;42.656;23.312;2023-01-29T00:31:45;94668.97;;;-1.37;100.00
7170;BME280;3626;42.656;23.312;2023-01-29T00:31:51;94672.44;;;-1.38;100.00
7170;BME280;3626;42.656;23.312;2023-01-29T00:31:57;94665.66;;;-1.38;100.00
7170;BME280;3626;42.656;23.312;2023-01-29T00:32:03;94664.03;;;-1.39;100.00
7170;BME280;3626;42.656;23.312;2023-01-29T00:32:09;94664.94;;;-1.40;100.00
7170;BME280;3626;42.656;23.312;2023-01-29T00:32:14;94665.75;;;-1.39;100.00
7170;BME280;3626;42.656;23.312;2023-01-29T00:32:20;94670.81;;;-1.39;100.00
7170;BME280;3626;42.656;23.312;2023-01-29T00:32:26;94674.22;;;-1.40;100.00
7170;BME280;3626;42.656;23.312;2023-01-29T00:32:31;94667.53;;;-1.41;100.00
7170;BME280;3626;42.656;23.312;2023-01-29T00:32:38;94665.13;;;-1.43;100.00
7170;BME280;3626;42.656;23.312;2023-01-29T00:32:44;94663.41;;;-1.42;100.00
7170;BME280;3626;42.656;23.312;2023-01-29T00:32:50;94665.13;;;-1.43;100.00
7170;BME280;3626;42.656;23.312;2023-01-29T00:32:57;94659.13;;;-1.42;100.00
7170;BME280;3626;42.656;23.312;2023-01-29T00:33:03;94654.19;;;-1.43;100.00
7170;BME280;3626;42.656;23.312;2023-01-29T00:33:10;94659.25;;;-1.43;100.00
7170;BME280;3626;42.656;23.312;2023-01-29T00:33:17;94655.00;;;-1.43;100.00
7170;BME280;3626;42.656;23.312;2023-01-29T00:33:23;94665.13;;;-1.43;100.00
7170;BME280;3626;42.656;23.312;2023-01-29T00:33:29;94666.84;;;-1.43;100.00
7170;BME280;3626;42.656;23.312;2023-01-29T00:33:35;94667.75;;;-1.44;100.00
7170;BME280;3626;42.656;23.312;2023-01-29T00:33:41;94667.75;;;-1.44;100.00
7170;BME280;3626;42.656;23.312;2023-01-29T00:33:47;94668.63;;;-1.45;100.00